sensor_id;sensor_type;location;lat;lon;timestamp;pressure;altitude;pressure_sealevel;temperature
15079;BMP180;6932;51.438;5.470;2022-09-03T00:00:16;100787.00;;;32.90
15079;BMP180;6932;51.438;5.470;2022-09-03T00:03:02;100790.00;;;32.90
15079;BMP180;6932;51.438;5.470;2022-09-03T00:05:42;100784.00;;;32.90
15079;BMP180;6932;51.438;5.470;2022-09-03T00:08:29;100787.00;;;32.90
15079;BMP180;6932;51.438;5.470;2022-09-03T00:11:02;100787.00;;;32.90
15079;BMP180;6932;51.438;5.470;2022-09-03T00:13:41;100790.00;;;32.90
15079;BMP180;6932;51.438;5.470;2022-09-03T00:16:14;100788.00;;;32.90
15079;BMP180;6932;51.438;5.470;2022-09-03T00:18:49;100784.00;;;32.90
15079;BMP180;6932;51.438;5.470;2022-09-03T00:21:29;100785.00;;;33.00
15079;BMP180;6932;51.438;5.470;2022-09-03T00:24:00;100779.00;;;33.00
15079;BMP180;6932;51.438;5.470;2022-09-03T00:26:32;100775.00;;;33.00
15079;BMP180;6932;51.438;5.470;2022-09-03T00:29:17;100774.00;;;33.00
15079;BMP180;6932;51.438;5.470;2022-09-03T00:31:50;100785.00;;;33.00
15079;BMP180;6932;51.438;5.470;2022-09-03T00:34:25;100784.00;;;33.00
15079;BMP180;6932;51.438;5.470;2022-09-03T00:36:52;100779.00;;;33.00
15079;BMP180;6932;51.438;5.470;2022-09-03T00:39:21;100779.00;;;33.00
15079;BMP180;6932;51.438;5.470;2022-09-03T00:51:13;100785.00;;;33.00
15079;BMP180;6932;51.438;5.470;2022-09-03T00:54:09;100778.00;;;33.00
15079;BMP180;6932;51.438;5.470;2022-09-03T00:57:20;100785.00;;;32.90
15079;BMP180;6932;51.438;5.470;2022-09-03T01:00:02;100779.00;;;32.90
15079;BMP180;6932;51.438;5.470;2022-09-03T01:06:02;100780.00;;;32.90
15079;BMP180;6932;51.438;5.470;2022-09-03T01:17:48;100773.00;;;32.90
15079;BMP180;6932;51.438;5.470;2022-09-03T01:29:36;100775.00;;;32.80
15079;BMP180;6932;51.438;5.470;2022-09-03T01:38:07;100776.00;;;32.70
15079;BMP180;6932;51.438;5.470;2022-09-03T01:43:45;100768.00;;;32.70
15079;BMP180;6932;51.438;5.470;2022-09-03T01:46:24;100768.00;;;32.70
15079;BMP180;6932;51.438;5.470;2022-09-03T01:49:18;100778.00;;;32.70
15079;BMP180;6932;51.438;5.470;2022-09-03T01:52:05;100769.00;;;32.70
15079;BMP180;6932;51.438;5.470;2022-09-03T01:54:59;100774.00;;;32.70
15079;BMP180;6932;51.438;5.470;2022-09-03T02:00:21;100771.00;;;32.70
15079;BMP180;6932;51.438;5.470;2022-09-03T02:02:50;100778.00;;;32.70
15079;BMP180;6932;51.438;5.470;2022-09-03T02:05:26;100774.00;;;32.70
15079;BMP180;6932;51.438;5.470;2022-09-03T02:08:06;100770.00;;;32.70
15079;BMP180;6932;51.438;5.470;2022-09-03T02:10:54;100771.00;;;32.70
15079;BMP180;6932;51.438;5.470;2022-09-03T02:13:33;100770.00;;;32.70
15079;BMP180;6932;51.438;5.470;2022-09-03T02:16:09;100762.00;;;32.70
15079;BMP180;6932;51.438;5.470;2022-09-03T02:18:44;100761.00;;;32.70
15079;BMP180;6932;51.438;5.470;2022-09-03T02:21:14;100762.00;;;32.70
15079;BMP180;6932;51.438;5.470;2022-09-03T02:23:41;100768.00;;;32.80
15079;BMP180;6932;51.438;5.470;2022-09-03T02:26:11;100762.00;;;32.80
15079;BMP180;6932;51.438;5.470;2022-09-03T02:28:37;100771.00;;;32.80
15079;BMP180;6932;51.438;5.470;2022-09-03T02:31:03;100770.00;;;32.80
15079;BMP180;6932;51.438;5.470;2022-09-03T02:33:36;100771.00;;;32.80
15079;BMP180;6932;51.438;5.470;2022-09-03T02:36:10;100770.00;;;32.80
15079;BMP180;6932;51.438;5.470;2022-09-03T02:38:36;100774.00;;;32.80
15079;BMP180;6932;51.438;5.470;2022-09-03T02:41:03;100763.00;;;32.80
15079;BMP180;6932;51.438;5.470;2022-09-03T02:44:03;100762.00;;;32.80
15079;BMP180;6932;51.438;5.470;2022-09-03T02:46:39;100768.00;;;32.80
15079;BMP180;6932;51.438;5.470;2022-09-03T02:49:06;100767.00;;;32.80
15079;BMP180;6932;51.438;5.470;2022-09-03T02:51:36;100763.00;;;32.80
15079;BMP180;6932;51.438;5.470;2022-09-03T02:54:02;100764.00;;;32.80
15079;BMP180;6932;51.438;5.470;2022-09-03T02:56:28;100775.00;;;32.80
15079;BMP180;6932;51.438;5.470;2022-09-03T02:58:54;100766.00;;;32.80
15079;BMP180;6932;51.438;5.470;2022-09-03T03:01:20;100772.00;;;32.80
15079;BMP180;6932;51.438;5.470;2022-09-03T03:03:46;100766.00;;;32.80
15079;BMP180;6932;51.438;5.470;2022-09-03T03:06:12;100772.00;;;32.80
15079;BMP180;6932;51.438;5.470;2022-09-03T03:08:39;100770.00;;;32.80
15079;BMP180;6932;51.438;5.470;2022-09-03T03:11:05;100768.00;;;32.80
15079;BMP180;6932;51.438;5.470;2022-09-03T03:13:32;100770.00;;;32.80
15079;BMP180;6932;51.438;5.470;2022-09-03T03:16:03;100765.00;;;32.80
15079;BMP180;6932;51.438;5.470;2022-09-03T03:18:30;100771.00;;;32.80
15079;BMP180;6932;51.438;5.470;2022-09-03T03:20:57;100775.00;;;32.80
15079;BMP180;6932;51.438;5.470;2022-09-03T03:23:30;100766.00;;;32.80
15079;BMP180;6932;51.438;5.470;2022-09-03T03:26:02;100774.00;;;32.80
15079;BMP180;6932;51.438;5.470;2022-09-03T03:28:28;100767.00;;;32.80
15079;BMP180;6932;51.438;5.470;2022-09-03T03:31:19;100769.00;;;32.80
15079;BMP180;6932;51.438;5.470;2022-09-03T03:33:54;100764.00;;;32.80
15079;BMP180;6932;51.438;5.470;2022-09-03T03:36:22;100762.00;;;32.80
15079;BMP180;6932;51.438;5.470;2022-09-03T03:38:48;100763.00;;;32.80
15079;BMP180;6932;51.438;5.470;2022-09-03T03:41:22;100767.00;;;32.80
15079;BMP180;6932;51.438;5.470;2022-09-03T03:43:57;100758.00;;;32.90
15079;BMP180;6932;51.438;5.470;2022-09-03T03:46:28;100756.00;;;32.90
15079;BMP180;6932;51.438;5.470;2022-09-03T03:48:54;100768.00;;;32.90
15079;BMP180;6932;51.438;5.470;2022-09-03T03:51:20;100765.00;;;32.90
15079;BMP180;6932;51.438;5.470;2022-09-03T03:53:46;100759.00;;;32.90
15079;BMP180;6932;51.438;5.470;2022-09-03T03:56:14;100760.00;;;32.90
15079;BMP180;6932;51.438;5.470;2022-09-03T03:58:42;100761.00;;;32.90
15079;BMP180;6932;51.438;5.470;2022-09-03T04:01:15;100764.00;;;32.90
15079;BMP180;6932;51.438;5.470;2022-09-03T04:03:43;100766.00;;;32.90
15079;BMP180;6932;51.438;5.470;2022-09-03T04:06:12;100756.00;;;32.90
15079;BMP180;6932;51.438;5.470;2022-09-03T04:08:40;100759.00;;;32.90
15079;BMP180;6932;51.438;5.470;2022-09-03T04:11:12;100757.00;;;32.90
15079;BMP180;6932;51.438;5.470;2022-09-03T04:13:41;100761.00;;;32.90
15079;BMP180;6932;51.438;5.470;2022-09-03T04:16:11;100765.00;;;32.90
15079;BMP180;6932;51.438;5.470;2022-09-03T04:18:39;100760.00;;;32.90
15079;BMP180;6932;51.438;5.470;2022-09-03T04:21:12;100769.00;;;32.90
15079;BMP180;6932;51.438;5.470;2022-09-03T04:23:44;100764.00;;;32.90
15079;BMP180;6932;51.438;5.470;2022-09-03T04:26:20;100757.00;;;32.90
15079;BMP180;6932;51.438;5.470;2022-09-03T04:28:46;100752.00;;;32.90
15079;BMP180;6932;51.438;5.470;2022-09-03T04:31:14;100760.00;;;32.90
15079;BMP180;6932;51.438;5.470;2022-09-03T04:33:41;100759.00;;;32.90
15079;BMP180;6932;51.438;5.470;2022-09-03T04:36:17;100757.00;;;32.90
15079;BMP180;6932;51.438;5.470;2022-09-03T04:38:46;100758.00;;;32.90
15079;BMP180;6932;51.438;5.470;2022-09-03T04:41:18;100762.00;;;32.90
15079;BMP180;6932;51.438;5.470;2022-09-03T04:43:44;100759.00;;;32.90
15079;BMP180;6932;51.438;5.470;2022-09-03T04:46:12;100760.00;;;32.90
15079;BMP180;6932;51.438;5.470;2022-09-03T04:48:39;100762.00;;;32.90
15079;BMP180;6932;51.438;5.470;2022-09-03T04:51:15;100760.00;;;32.90
15079;BMP180;6932;51.438;5.470;2022-09-03T04:53:46;100765.00;;;32.90
15079;BMP180;6932;51.438;5.470;2022-09-03T04:56:18;100763.00;;;32.90
15079;BMP180;6932;51.438;5.470;2022-09-03T04:58:45;100756.00;;;32.90
15079;BMP180;6932;51.438;5.470;2022-09-03T05:01:17;100757.00;;;32.90
15079;BMP180;6932;51.438;5.470;2022-09-03T05:03:44;100762.00;;;32.90
15079;BMP180;6932;51.438;5.470;2022-09-03T05:06:10;100761.00;;;32.90
15079;BMP180;6932;51.438;5.470;2022-09-03T05:08:36;100762.00;;;32.90
15079;BMP180;6932;51.438;5.470;2022-09-03T05:11:04;100765.00;;;32.90
15079;BMP180;6932;51.438;5.470;2022-09-03T05:13:31;100760.00;;;32.90
15079;BMP180;6932;51.438;5.470;2022-09-03T05:16:03;100756.00;;;32.90
15079;BMP180;6932;51.438;5.470;2022-09-03T05:18:31;100754.00;;;32.90
15079;BMP180;6932;51.438;5.470;2022-09-03T05:21:06;100757.00;;;32.90
15079;BMP180;6932;51.438;5.470;2022-09-03T05:23:41;100759.00;;;33.00
15079;BMP180;6932;51.438;5.470;2022-09-03T05:26:11;100750.00;;;32.90
15079;BMP180;6932;51.438;5.470;2022-09-03T05:28:40;100753.00;;;33.00
15079;BMP180;6932;51.438;5.470;2022-09-03T05:31:11;100757.00;;;33.00
15079;BMP180;6932;51.438;5.470;2022-09-03T05:33:44;100750.00;;;33.00
15079;BMP180;6932;51.438;5.470;2022-09-03T05:36:15;100759.00;;;33.00
15079;BMP180;6932;51.438;5.470;2022-09-03T05:38:42;100754.00;;;33.00
15079;BMP180;6932;51.438;5.470;2022-09-03T05:41:10;100762.00;;;33.00
15079;BMP180;6932;51.438;5.470;2022-09-03T05:43:37;100761.00;;;33.00
15079;BMP180;6932;51.438;5.470;2022-09-03T05:46:12;100764.00;;;33.00
15079;BMP180;6932;51.438;5.470;2022-09-03T05:48:39;100763.00;;;32.90
15079;BMP180;6932;51.438;5.470;2022-09-03T05:51:14;100756.00;;;32.90
15079;BMP180;6932;51.438;5.470;2022-09-03T05:53:43;100759.00;;;32.90
15079;BMP180;6932;51.438;5.470;2022-09-03T05:56:13;100759.00;;;32.90
15079;BMP180;6932;51.438;5.470;2022-09-03T05:58:41;100762.00;;;32.90
15079;BMP180;6932;51.438;5.470;2022-09-03T06:01:23;100767.00;;;32.90
15079;BMP180;6932;51.438;5.470;2022-09-03T06:03:59;100770.00;;;32.90
15079;BMP180;6932;51.438;5.470;2022-09-03T06:06:28;100766.00;;;32.80
15079;BMP180;6932;51.438;5.470;2022-09-03T06:08:56;100767.00;;;32.90
15079;BMP180;6932;51.438;5.470;2022-09-03T06:11:24;100763.00;;;32.90
15079;BMP180;6932;51.438;5.470;2022-09-03T06:13:59;100756.00;;;32.90
15079;BMP180;6932;51.438;5.470;2022-09-03T06:16:26;100758.00;;;32.90
15079;BMP180;6932;51.438;5.470;2022-09-03T06:18:52;100768.00;;;32.90
15079;BMP180;6932;51.438;5.470;2022-09-03T06:21:18;100769.00;;;32.90
15079;BMP180;6932;51.438;5.470;2022-09-03T06:23:53;100766.00;;;32.90
15079;BMP180;6932;51.438;5.470;2022-09-03T06:26:23;100770.00;;;32.90
15079;BMP180;6932;51.438;5.470;2022-09-03T06:28:49;100764.00;;;32.90
15079;BMP180;6932;51.438;5.470;2022-09-03T06:31:18;100771.00;;;32.90
15079;BMP180;6932;51.438;5.470;2022-09-03T06:33:45;100767.00;;;32.90
15079;BMP180;6932;51.438;5.470;2022-09-03T06:36:17;100773.00;;;32.90
15079;BMP180;6932;51.438;5.470;2022-09-03T06:38:44;100775.00;;;32.90
15079;BMP180;6932;51.438;5.470;2022-09-03T06:41:17;100777.00;;;32.90
15079;BMP180;6932;51.438;5.470;2022-09-03T06:43:51;100779.00;;;32.80
15079;BMP180;6932;51.438;5.470;2022-09-03T06:46:21;100778.00;;;32.80
15079;BMP180;6932;51.438;5.470;2022-09-03T06:48:47;100777.00;;;32.80
15079;BMP180;6932;51.438;5.470;2022-09-03T06:51:18;100763.00;;;32.70
15079;BMP180;6932;51.438;5.470;2022-09-03T06:53:48;100772.00;;;32.70
15079;BMP180;6932;51.438;5.470;2022-09-03T06:56:20;100777.00;;;32.70
15079;BMP180;6932;51.438;5.470;2022-09-03T06:59:04;100772.00;;;32.70
15079;BMP180;6932;51.438;5.470;2022-09-03T07:01:32;100777.00;;;32.70
15079;BMP180;6932;51.438;5.470;2022-09-03T07:04:01;100770.00;;;32.60
15079;BMP180;6932;51.438;5.470;2022-09-03T07:06:31;100777.00;;;32.60
15079;BMP180;6932;51.438;5.470;2022-09-03T07:08:57;100787.00;;;32.60
15079;BMP180;6932;51.438;5.470;2022-09-03T07:11:27;100781.00;;;32.50
15079;BMP180;6932;51.438;5.470;2022-09-03T07:13:54;100777.00;;;32.50
15079;BMP180;6932;51.438;5.470;2022-09-03T07:16:41;100777.00;;;32.50
15079;BMP180;6932;51.438;5.470;2022-09-03T07:19:07;100779.00;;;32.40
15079;BMP180;6932;51.438;5.470;2022-09-03T07:21:36;100781.00;;;32.40
15079;BMP180;6932;51.438;5.470;2022-09-03T07:24:03;100785.00;;;32.40
15079;BMP180;6932;51.438;5.470;2022-09-03T07:26:33;100790.00;;;32.40
15079;BMP180;6932;51.438;5.470;2022-09-03T07:28:59;100784.00;;;32.30
15079;BMP180;6932;51.438;5.470;2022-09-03T07:31:35;100780.00;;;32.30
15079;BMP180;6932;51.438;5.470;2022-09-03T07:34:05;100780.00;;;32.30
15079;BMP180;6932;51.438;5.470;2022-09-03T07:36:49;100779.00;;;32.30
15079;BMP180;6932;51.438;5.470;2022-09-03T07:39:16;100780.00;;;32.20
15079;BMP180;6932;51.438;5.470;2022-09-03T07:41:43;100778.00;;;32.30
15079;BMP180;6932;51.438;5.470;2022-09-03T07:44:12;100780.00;;;32.20
15079;BMP180;6932;51.438;5.470;2022-09-03T07:46:40;100789.00;;;32.20
15079;BMP180;6932;51.438;5.470;2022-09-03T07:49:06;100786.00;;;32.20
15079;BMP180;6932;51.438;5.470;2022-09-03T07:51:37;100784.00;;;32.20
15079;BMP180;6932;51.438;5.470;2022-09-03T07:54:06;100794.00;;;32.20
15079;BMP180;6932;51.438;5.470;2022-09-03T07:56:35;100798.00;;;32.20
15079;BMP180;6932;51.438;5.470;2022-09-03T07:59:02;100794.00;;;32.20
15079;BMP180;6932;51.438;5.470;2022-09-03T08:01:31;100795.00;;;32.20
15079;BMP180;6932;51.438;5.470;2022-09-03T08:03:58;100797.00;;;32.20
15079;BMP180;6932;51.438;5.470;2022-09-03T08:06:27;100795.00;;;32.20
15079;BMP180;6932;51.438;5.470;2022-09-03T08:08:59;100797.00;;;32.20
15079;BMP180;6932;51.438;5.470;2022-09-03T08:11:27;100800.00;;;32.20
15079;BMP180;6932;51.438;5.470;2022-09-03T08:14:02;100799.00;;;32.20
15079;BMP180;6932;51.438;5.470;2022-09-03T08:16:37;100807.00;;;32.20
15079;BMP180;6932;51.438;5.470;2022-09-03T08:19:04;100797.00;;;32.20
15079;BMP180;6932;51.438;5.470;2022-09-03T08:21:30;100800.00;;;32.20
15079;BMP180;6932;51.438;5.470;2022-09-03T08:23:57;100803.00;;;32.20
15079;BMP180;6932;51.438;5.470;2022-09-03T08:26:32;100804.00;;;32.20
15079;BMP180;6932;51.438;5.470;2022-09-03T08:28:59;100814.00;;;32.30
15079;BMP180;6932;51.438;5.470;2022-09-03T08:31:25;100809.00;;;32.30
15079;BMP180;6932;51.438;5.470;2022-09-03T08:33:54;100810.00;;;32.30
15079;BMP180;6932;51.438;5.470;2022-09-03T08:36:28;100809.00;;;32.30
15079;BMP180;6932;51.438;5.470;2022-09-03T08:39:01;100813.00;;;32.30
15079;BMP180;6932;51.438;5.470;2022-09-03T08:44:34;100813.00;;;32.30
15079;BMP180;6932;51.438;5.470;2022-09-03T08:55:37;100802.00;;;32.30
15079;BMP180;6932;51.438;5.470;2022-09-03T08:58:16;100808.00;;;32.30
15079;BMP180;6932;51.438;5.470;2022-09-03T09:10:19;100813.00;;;32.30
15079;BMP180;6932;51.438;5.470;2022-09-03T09:21:41;100806.00;;;32.40
15079;BMP180;6932;51.438;5.470;2022-09-03T09:24:22;100809.00;;;32.50
15079;BMP180;6932;51.438;5.470;2022-09-03T09:26:59;100804.00;;;32.50
15079;BMP180;6932;51.438;5.470;2022-09-03T09:29:37;100807.00;;;32.50
15079;BMP180;6932;51.438;5.470;2022-09-03T09:32:08;100802.00;;;32.60
15079;BMP180;6932;51.438;5.470;2022-09-03T09:34:36;100808.00;;;32.60
15079;BMP180;6932;51.438;5.470;2022-09-03T09:37:08;100810.00;;;32.60
15079;BMP180;6932;51.438;5.470;2022-09-03T09:39:36;100803.00;;;32.60
15079;BMP180;6932;51.438;5.470;2022-09-03T09:42:09;100811.00;;;32.60
15079;BMP180;6932;51.438;5.470;2022-09-03T09:44:41;100803.00;;;32.60
15079;BMP180;6932;51.438;5.470;2022-09-03T09:47:21;100802.00;;;32.70
15079;BMP180;6932;51.438;5.470;2022-09-03T09:52:15;100815.00;;;32.70
15079;BMP180;6932;51.438;5.470;2022-09-03T09:54:44;100809.00;;;32.70
15079;BMP180;6932;51.438;5.470;2022-09-03T09:57:22;100809.00;;;32.70
15079;BMP180;6932;51.438;5.470;2022-09-03T09:59:49;100816.00;;;32.70
15079;BMP180;6932;51.438;5.470;2022-09-03T10:02:27;100811.00;;;32.80
15079;BMP180;6932;51.438;5.470;2022-09-03T10:05:12;100812.00;;;32.80
15079;BMP180;6932;51.438;5.470;2022-09-03T10:07:38;100811.00;;;32.80
15079;BMP180;6932;51.438;5.470;2022-09-03T10:10:15;100812.00;;;32.80
15079;BMP180;6932;51.438;5.470;2022-09-03T10:12:49;100805.00;;;32.80
15079;BMP180;6932;51.438;5.470;2022-09-03T10:15:46;100802.00;;;32.80
15079;BMP180;6932;51.438;5.470;2022-09-03T10:18:41;100804.00;;;32.80
15079;BMP180;6932;51.438;5.470;2022-09-03T10:21:15;100802.00;;;32.80
15079;BMP180;6932;51.438;5.470;2022-09-03T10:24:00;100803.00;;;32.80
15079;BMP180;6932;51.438;5.470;2022-09-03T10:26:28;100794.00;;;32.80
15079;BMP180;6932;51.438;5.470;2022-09-03T10:28:59;100806.00;;;32.80
15079;BMP180;6932;51.438;5.470;2022-09-03T10:32:13;100792.00;;;32.70
15079;BMP180;6932;51.438;5.470;2022-09-03T10:35:20;100790.00;;;32.80
15079;BMP180;6932;51.438;5.470;2022-09-03T10:38:23;100794.00;;;32.80
15079;BMP180;6932;51.438;5.470;2022-09-03T10:43:42;100794.00;;;32.80
15079;BMP180;6932;51.438;5.470;2022-09-03T10:46:16;100795.00;;;32.80
15079;BMP180;6932;51.438;5.470;2022-09-03T10:52:26;100788.00;;;32.80
15079;BMP180;6932;51.438;5.470;2022-09-03T10:55:17;100794.00;;;32.80
15079;BMP180;6932;51.438;5.470;2022-09-03T10:57:53;100804.00;;;32.80
15079;BMP180;6932;51.438;5.470;2022-09-03T11:00:23;100801.00;;;32.70
15079;BMP180;6932;51.438;5.470;2022-09-03T11:05:28;100798.00;;;32.80
15079;BMP180;6932;51.438;5.470;2022-09-03T11:10:53;100800.00;;;32.80
15079;BMP180;6932;51.438;5.470;2022-09-03T11:13:29;100799.00;;;32.80
15079;BMP180;6932;51.438;5.470;2022-09-03T11:16:08;100797.00;;;32.80
15079;BMP180;6932;51.438;5.470;2022-09-03T11:18:51;100797.00;;;32.70
15079;BMP180;6932;51.438;5.470;2022-09-03T11:21:23;100790.00;;;32.70
15079;BMP180;6932;51.438;5.470;2022-09-03T11:24:16;100791.00;;;32.70
15079;BMP180;6932;51.438;5.470;2022-09-03T11:26:49;100786.00;;;32.70
15079;BMP180;6932;51.438;5.470;2022-09-03T11:29:53;100787.00;;;32.70
15079;BMP180;6932;51.438;5.470;2022-09-03T11:32:46;100789.00;;;32.70
15079;BMP180;6932;51.438;5.470;2022-09-03T11:35:38;100777.00;;;32.60
15079;BMP180;6932;51.438;5.470;2022-09-03T11:38:20;100771.00;;;32.70
15079;BMP180;6932;51.438;5.470;2022-09-03T11:41:00;100775.00;;;32.70
15079;BMP180;6932;51.438;5.470;2022-09-03T11:43:32;100770.00;;;32.70
15079;BMP180;6932;51.438;5.470;2022-09-03T11:46:12;100777.00;;;32.70
15079;BMP180;6932;51.438;5.470;2022-09-03T11:48:45;100772.00;;;32.70
15079;BMP180;6932;51.438;5.470;2022-09-03T11:51:28;100763.00;;;32.70
15079;BMP180;6932;51.438;5.470;2022-09-03T11:54:24;100766.00;;;32.80
15079;BMP180;6932;51.438;5.470;2022-09-03T11:57:03;100772.00;;;32.80
15079;BMP180;6932;51.438;5.470;2022-09-03T11:59:30;100775.00;;;32.80
15079;BMP180;6932;51.438;5.470;2022-09-03T12:02:12;100773.00;;;32.80
15079;BMP180;6932;51.438;5.470;2022-09-03T12:04:51;100780.00;;;32.80
15079;BMP180;6932;51.438;5.470;2022-09-03T12:19:51;100774.00;;;32.80
15079;BMP180;6932;51.438;5.470;2022-09-03T12:22:20;100770.00;;;32.80
15079;BMP180;6932;51.438;5.470;2022-09-03T12:24:46;100764.00;;;32.80
15079;BMP180;6932;51.438;5.470;2022-09-03T12:27:22;100771.00;;;32.90
15079;BMP180;6932;51.438;5.470;2022-09-03T12:29:56;100767.00;;;32.80
15079;BMP180;6932;51.438;5.470;2022-09-03T12:32:35;100766.00;;;32.90
15079;BMP180;6932;51.438;5.470;2022-09-03T12:35:21;100769.00;;;32.90
15079;BMP180;6932;51.438;5.470;2022-09-03T12:37:47;100768.00;;;32.90
15079;BMP180;6932;51.438;5.470;2022-09-03T12:40:20;100767.00;;;32.90
15079;BMP180;6932;51.438;5.470;2022-09-03T12:42:46;100766.00;;;32.90
15079;BMP180;6932;51.438;5.470;2022-09-03T12:45:13;100769.00;;;32.90
15079;BMP180;6932;51.438;5.470;2022-09-03T12:47:42;100768.00;;;32.90
15079;BMP180;6932;51.438;5.470;2022-09-03T12:50:17;100770.00;;;32.90
15079;BMP180;6932;51.438;5.470;2022-09-03T12:52:47;100764.00;;;32.90
15079;BMP180;6932;51.438;5.470;2022-09-03T12:55:37;100761.00;;;32.90
15079;BMP180;6932;51.438;5.470;2022-09-03T13:01:20;100758.00;;;32.90
15079;BMP180;6932;51.438;5.470;2022-09-03T13:04:08;100751.00;;;32.90
15079;BMP180;6932;51.438;5.470;2022-09-03T13:06:58;100756.00;;;32.90
15079;BMP180;6932;51.438;5.470;2022-09-03T13:09:27;100758.00;;;32.90
15079;BMP180;6932;51.438;5.470;2022-09-03T13:11:56;100756.00;;;32.90
15079;BMP180;6932;51.438;5.470;2022-09-03T13:14:25;100753.00;;;32.90
15079;BMP180;6932;51.438;5.470;2022-09-03T13:17:22;100757.00;;;32.90
15079;BMP180;6932;51.438;5.470;2022-09-03T13:23:01;100755.00;;;32.90
15079;BMP180;6932;51.438;5.470;2022-09-03T13:25:44;100760.00;;;32.90
15079;BMP180;6932;51.438;5.470;2022-09-03T13:28:56;100748.00;;;32.90
15079;BMP180;6932;51.438;5.470;2022-09-03T13:31:41;100745.00;;;32.90
15079;BMP180;6932;51.438;5.470;2022-09-03T13:34:24;100747.00;;;32.90
15079;BMP180;6932;51.438;5.470;2022-09-03T13:39:57;100736.00;;;32.90
15079;BMP180;6932;51.438;5.470;2022-09-03T13:42:34;100744.00;;;32.90
15079;BMP180;6932;51.438;5.470;2022-09-03T13:48:25;100737.00;;;32.90
15079;BMP180;6932;51.438;5.470;2022-09-03T13:51:28;100739.00;;;32.90
15079;BMP180;6932;51.438;5.470;2022-09-03T13:54:22;100738.00;;;32.90
15079;BMP180;6932;51.438;5.470;2022-09-03T13:57:00;100739.00;;;32.90
15079;BMP180;6932;51.438;5.470;2022-09-03T14:00:00;100741.00;;;33.00
15079;BMP180;6932;51.438;5.470;2022-09-03T14:02:50;100748.00;;;33.00
15079;BMP180;6932;51.438;5.470;2022-09-03T14:06:08;100748.00;;;32.90
15079;BMP180;6932;51.438;5.470;2022-09-03T14:11:49;100750.00;;;33.00
15079;BMP180;6932;51.438;5.470;2022-09-03T14:20:05;100750.00;;;33.10
15079;BMP180;6932;51.438;5.470;2022-09-03T14:22:44;100757.00;;;33.10
15079;BMP180;6932;51.438;5.470;2022-09-03T14:25:17;100753.00;;;33.10
15079;BMP180;6932;51.438;5.470;2022-09-03T14:27:47;100749.00;;;33.10
15079;BMP180;6932;51.438;5.470;2022-09-03T14:30:17;100746.00;;;33.20
15079;BMP180;6932;51.438;5.470;2022-09-03T14:33:17;100749.00;;;33.20
15079;BMP180;6932;51.438;5.470;2022-09-03T14:38:56;100758.00;;;33.20
15079;BMP180;6932;51.438;5.470;2022-09-03T14:41:56;100754.00;;;33.20
15079;BMP180;6932;51.438;5.470;2022-09-03T14:44:33;100750.00;;;33.20
15079;BMP180;6932;51.438;5.470;2022-09-03T14:55:51;100747.00;;;33.20
15079;BMP180;6932;51.438;5.470;2022-09-03T15:01:37;100743.00;;;33.20
15079;BMP180;6932;51.438;5.470;2022-09-03T15:09:53;100745.00;;;33.20
15079;BMP180;6932;51.438;5.470;2022-09-03T15:12:38;100740.00;;;33.20
15079;BMP180;6932;51.438;5.470;2022-09-03T15:15:18;100741.00;;;33.20
15079;BMP180;6932;51.438;5.470;2022-09-03T15:23:45;100746.00;;;33.20
15079;BMP180;6932;51.438;5.470;2022-09-03T15:27:01;100746.00;;;33.20
15079;BMP180;6932;51.438;5.470;2022-09-03T15:29:55;100747.00;;;33.20
15079;BMP180;6932;51.438;5.470;2022-09-03T15:35:38;100756.00;;;33.30
15079;BMP180;6932;51.438;5.470;2022-09-03T15:38:20;100755.00;;;33.30
15079;BMP180;6932;51.438;5.470;2022-09-03T15:40:53;100755.00;;;33.40
15079;BMP180;6932;51.438;5.470;2022-09-03T15:43:32;100752.00;;;33.40
15079;BMP180;6932;51.438;5.470;2022-09-03T15:46:02;100758.00;;;33.40
15079;BMP180;6932;51.438;5.470;2022-09-03T15:49:00;100754.00;;;33.40
15079;BMP180;6932;51.438;5.470;2022-09-03T15:51:34;100752.00;;;33.40
15079;BMP180;6932;51.438;5.470;2022-09-03T15:54:20;100755.00;;;33.40
15079;BMP180;6932;51.438;5.470;2022-09-03T15:57:15;100755.00;;;33.40
15079;BMP180;6932;51.438;5.470;2022-09-03T16:00:09;100750.00;;;33.40
15079;BMP180;6932;51.438;5.470;2022-09-03T16:05:34;100750.00;;;33.50
15079;BMP180;6932;51.438;5.470;2022-09-03T16:11:06;100764.00;;;33.50
15079;BMP180;6932;51.438;5.470;2022-09-03T16:13:52;100751.00;;;33.50
15079;BMP180;6932;51.438;5.470;2022-09-03T16:16:56;100756.00;;;33.50
15079;BMP180;6932;51.438;5.470;2022-09-03T16:19:36;100752.00;;;33.50
15079;BMP180;6932;51.438;5.470;2022-09-03T16:22:31;100759.00;;;33.40
15079;BMP180;6932;51.438;5.470;2022-09-03T16:25:12;100758.00;;;33.50
15079;BMP180;6932;51.438;5.470;2022-09-03T16:56:33;100769.00;;;33.50
15079;BMP180;6932;51.438;5.470;2022-09-03T16:59:09;100778.00;;;33.50
15079;BMP180;6932;51.438;5.470;2022-09-03T17:10:59;100779.00;;;33.60
15079;BMP180;6932;51.438;5.470;2022-09-03T17:22:18;100789.00;;;33.70
15079;BMP180;6932;51.438;5.470;2022-09-03T17:24:53;100788.00;;;33.70
15079;BMP180;6932;51.438;5.470;2022-09-03T17:33:25;100793.00;;;33.80
15079;BMP180;6932;51.438;5.470;2022-09-03T17:36:14;100800.00;;;33.80
15079;BMP180;6932;51.438;5.470;2022-09-03T17:39:14;100799.00;;;33.80
15079;BMP180;6932;51.438;5.470;2022-09-03T17:42:01;100802.00;;;33.80
15079;BMP180;6932;51.438;5.470;2022-09-03T17:47:47;100810.00;;;33.80
15079;BMP180;6932;51.438;5.470;2022-09-03T17:50:40;100809.00;;;33.80
15079;BMP180;6932;51.438;5.470;2022-09-03T17:53:21;100817.00;;;33.80
15079;BMP180;6932;51.438;5.470;2022-09-03T17:56:01;100816.00;;;33.80
15079;BMP180;6932;51.438;5.470;2022-09-03T17:58:40;100823.00;;;33.80
15079;BMP180;6932;51.438;5.470;2022-09-03T18:01:20;100823.00;;;33.90
15079;BMP180;6932;51.438;5.470;2022-09-03T18:06:35;100834.00;;;33.90
15079;BMP180;6932;51.438;5.470;2022-09-03T18:12:10;100846.00;;;33.90
15079;BMP180;6932;51.438;5.470;2022-09-03T18:14:55;100845.00;;;33.90
15079;BMP180;6932;51.438;5.470;2022-09-03T18:17:36;100853.00;;;33.90
15079;BMP180;6932;51.438;5.470;2022-09-03T18:20:10;100850.00;;;33.90
15079;BMP180;6932;51.438;5.470;2022-09-03T18:26:24;100868.00;;;33.90
15079;BMP180;6932;51.438;5.470;2022-09-03T18:29:21;100866.00;;;33.90
15079;BMP180;6932;51.438;5.470;2022-09-03T18:32:07;100873.00;;;33.90
15079;BMP180;6932;51.438;5.470;2022-09-03T18:34:51;100881.00;;;33.90
15079;BMP180;6932;51.438;5.470;2022-09-03T18:37:36;100884.00;;;33.90